createdAt,value
2022-12-27T00:00:27.130Z,0.19
2022-12-27T00:02:54.056Z,0.19
2022-12-27T00:05:20.800Z,0.21
2022-12-27T00:07:47.502Z,0.22
2022-12-27T00:10:14.263Z,0.25
2022-12-27T00:12:40.976Z,0.26
2022-12-27T00:15:07.902Z,0.27
2022-12-27T00:17:34.632Z,0.28
2022-12-27T00:20:08.316Z,0.29
2022-12-27T00:22:39.351Z,0.30
2022-12-27T00:25:06.473Z,0.29
2022-12-27T00:27:33.128Z,0.31
2022-12-27T00:30:01.317Z,0.35
2022-12-27T00:32:28.054Z,0.38
2022-12-27T00:34:54.711Z,0.40
2022-12-27T00:37:21.580Z,0.41
2022-12-27T00:39:48.349Z,0.42
2022-12-27T00:42:15.079Z,0.43
2022-12-27T00:44:43.215Z,0.42
2022-12-27T00:47:10.315Z,0.40
2022-12-27T00:49:37.020Z,0.38
2022-12-27T00:52:03.895Z,0.38
2022-12-27T00:54:30.561Z,0.39
2022-12-27T00:56:57.256Z,0.40
2022-12-27T00:59:23.973Z,0.42
2022-12-27T01:01:50.832Z,0.44
2022-12-27T01:04:17.526Z,0.45
2022-12-27T01:06:44.705Z,0.46
2022-12-27T01:09:11.400Z,0.46
2022-12-27T01:11:39.716Z,0.47
2022-12-27T01:14:06.530Z,0.48
2022-12-27T01:16:33.851Z,0.49
2022-12-27T01:19:00.958Z,0.50
2022-12-27T01:21:30.562Z,0.51
2022-12-27T01:23:57.630Z,0.53
2022-12-27T01:26:24.661Z,0.53
2022-12-27T01:28:51.913Z,0.54
2022-12-27T01:31:23.063Z,0.54
2022-12-27T01:33:49.902Z,0.55
2022-12-27T01:36:17.621Z,0.54
2022-12-27T01:38:44.505Z,0.56
2022-12-27T01:42:08.752Z,0.54
2022-12-27T01:44:58.552Z,0.58
2022-12-27T01:47:34.126Z,0.57
2022-12-27T01:50:08.138Z,0.57
2022-12-27T01:52:46.578Z,0.56
2022-12-27T01:55:51.547Z,0.58
2022-12-27T01:58:25.284Z,0.59
2022-12-27T02:00:52.088Z,0.61
2022-12-27T02:03:27.493Z,0.60
2022-12-27T02:05:54.235Z,0.61
2022-12-27T02:08:24.096Z,0.64
2022-12-27T02:10:50.806Z,0.66
2022-12-27T02:13:17.563Z,0.69
2022-12-27T02:15:44.278Z,0.68
2022-12-27T02:18:10.940Z,0.72
2022-12-27T02:21:01.182Z,0.73
2022-12-27T02:24:04.471Z,0.73
2022-12-27T02:26:46.659Z,0.76
2022-12-27T02:29:38.999Z,0.78
2022-12-27T02:32:18.569Z,0.76
2022-12-27T02:34:48.499Z,0.79
2022-12-27T02:37:15.293Z,0.81
2022-12-27T02:39:45.545Z,0.82
2022-12-27T02:42:31.839Z,0.84
2022-12-27T02:45:17.863Z,0.85
2022-12-27T02:48:04.317Z,0.84
2022-12-27T02:51:14.831Z,0.88
2022-12-27T02:53:51.615Z,0.87
2022-12-27T02:56:54.764Z,0.88
2022-12-27T03:00:05.823Z,0.90
2022-12-27T03:03:01.103Z,0.92
2022-12-27T03:05:32.201Z,0.93
2022-12-27T03:08:03.102Z,0.91
2022-12-27T03:11:05.898Z,0.90
2022-12-27T03:14:05.776Z,0.91
2022-12-27T03:16:43.310Z,0.94
2022-12-27T03:19:13.682Z,0.96
2022-12-27T03:22:01.612Z,0.96
2022-12-27T03:24:48.563Z,0.97
2022-12-27T03:27:21.562Z,0.97
2022-12-27T03:30:08.982Z,0.97
2022-12-27T03:32:57.908Z,0.97
2022-12-27T03:35:24.666Z,0.96
2022-12-27T03:38:05.586Z,0.97
2022-12-27T03:41:04.349Z,0.98
2022-12-27T03:43:32.452Z,0.97
2022-12-27T03:46:34.643Z,0.99
2022-12-27T03:49:16.742Z,1.01
2022-12-27T03:52:30.060Z,1.02
2022-12-27T03:54:56.851Z,1.05
2022-12-27T03:57:24.021Z,1.05
2022-12-27T03:59:50.756Z,1.06
2022-12-27T04:02:17.474Z,1.06
2022-12-27T04:04:44.443Z,1.06
2022-12-27T04:07:12.502Z,1.06
2022-12-27T04:09:57.819Z,1.04
2022-12-27T04:12:43.219Z,1.03
2022-12-27T04:15:28.503Z,1.05
2022-12-27T04:18:13.882Z,1.05
2022-12-27T04:20:59.542Z,1.04
2022-12-27T04:23:44.685Z,1.04
2022-12-27T04:26:30.247Z,1.05
2022-12-27T04:29:15.658Z,1.06
2022-12-27T04:32:00.948Z,1.09
2022-12-27T04:34:45.845Z,1.11
2022-12-27T04:37:21.588Z,1.14
2022-12-27T04:40:06.992Z,1.15
2022-12-27T04:42:52.273Z,1.17
2022-12-27T04:45:37.569Z,1.20
2022-12-27T04:48:23.557Z,1.20
2022-12-27T04:51:08.937Z,1.21
2022-12-27T04:53:54.358Z,1.21
2022-12-27T04:56:21.092Z,1.22
2022-12-27T04:59:06.458Z,1.22
2022-12-27T05:01:51.791Z,1.23
2022-12-27T05:04:18.599Z,1.21
2022-12-27T05:06:45.300Z,1.25
2022-12-27T05:09:30.702Z,1.27
2022-12-27T05:12:15.903Z,1.31
2022-12-27T05:14:42.635Z,1.33
2022-12-27T05:17:09.537Z,1.35
2022-12-27T05:19:36.188Z,1.37
2022-12-27T05:22:21.526Z,1.39
2022-12-27T05:25:07.091Z,1.37
2022-12-27T05:27:33.856Z,1.43
2022-12-27T05:30:01.371Z,1.45
2022-12-27T05:32:28.069Z,1.48
2022-12-27T05:34:54.740Z,1.50
2022-12-27T05:37:21.444Z,1.53
2022-12-27T05:39:48.276Z,1.53
2022-12-27T05:42:14.880Z,1.59
2022-12-27T05:44:41.586Z,1.61
2022-12-27T05:47:08.260Z,1.63
2022-12-27T05:49:35.989Z,1.64
2022-12-27T05:52:02.727Z,1.64
2022-12-27T05:54:29.479Z,1.65
2022-12-27T05:56:56.137Z,1.65
2022-12-27T05:59:22.869Z,1.65
2022-12-27T06:01:49.744Z,1.64
2022-12-27T06:04:16.590Z,1.64
2022-12-27T06:06:43.432Z,1.64
2022-12-27T06:09:10.419Z,1.66
2022-12-27T06:11:38.207Z,1.67
2022-12-27T06:14:04.916Z,1.67
2022-12-27T06:16:31.602Z,1.68
2022-12-27T06:18:58.279Z,1.70
2022-12-27T06:21:25.052Z,1.72
2022-12-27T06:23:51.740Z,1.70
2022-12-27T06:26:26.385Z,1.76
2022-12-27T06:28:54.834Z,1.80
2022-12-27T06:31:21.721Z,1.82
2022-12-27T06:33:49.050Z,1.85
2022-12-27T06:36:17.557Z,1.88
2022-12-27T06:38:44.266Z,1.91
2022-12-27T06:41:12.936Z,1.93
2022-12-27T06:43:39.896Z,1.96
2022-12-27T06:46:17.077Z,1.98
2022-12-27T06:48:45.908Z,1.97
2022-12-27T06:51:13.199Z,2.00
2022-12-27T06:53:39.985Z,2.06
2022-12-27T06:56:12.200Z,2.06
2022-12-27T06:58:39.124Z,2.13
2022-12-27T07:01:13.149Z,2.16
2022-12-27T07:03:40.115Z,2.17
2022-12-27T07:06:07.215Z,2.20
2022-12-27T07:08:35.001Z,2.23
2022-12-27T07:11:06.473Z,2.26
2022-12-27T07:13:34.256Z,2.28
2022-12-27T07:16:00.891Z,2.30
2022-12-27T07:18:27.592Z,2.33
2022-12-27T07:20:54.276Z,2.36
2022-12-27T07:23:20.956Z,2.39
2022-12-27T07:25:47.700Z,2.42
2022-12-27T07:28:14.465Z,2.45
2022-12-27T07:30:41.955Z,2.49
2022-12-27T07:33:08.918Z,2.53
2022-12-27T07:35:38.473Z,2.57
2022-12-27T07:38:08.291Z,2.61
2022-12-27T07:40:36.932Z,2.64
2022-12-27T07:43:03.876Z,2.66
2022-12-27T07:45:30.573Z,2.70
2022-12-27T07:47:57.265Z,2.73
2022-12-27T07:50:23.990Z,2.75
2022-12-27T07:52:50.822Z,2.77
2022-12-27T07:55:17.423Z,2.81
2022-12-27T07:57:44.127Z,2.84
2022-12-27T08:00:11.406Z,2.88
2022-12-27T08:02:43.561Z,2.88
2022-12-27T08:05:12.185Z,2.96
2022-12-27T08:07:38.942Z,3.00
2022-12-27T08:10:06.028Z,3.05
2022-12-27T08:12:32.681Z,3.06
2022-12-27T08:14:59.381Z,3.14
2022-12-27T08:17:29.425Z,3.18
2022-12-27T08:19:56.497Z,3.24
2022-12-27T08:22:23.790Z,3.28
2022-12-27T08:24:51.157Z,3.32
2022-12-27T08:27:22.349Z,3.36
2022-12-27T08:29:49.097Z,3.39
2022-12-27T08:32:15.893Z,3.42
2022-12-27T08:34:42.495Z,3.45
2022-12-27T08:37:09.206Z,3.48
2022-12-27T08:39:35.961Z,3.50
2022-12-27T08:42:02.683Z,3.53
2022-12-27T08:44:29.543Z,3.56
2022-12-27T08:46:56.182Z,3.58
2022-12-27T08:49:23.027Z,3.60
2022-12-27T08:51:49.763Z,3.62
2022-12-27T08:54:16.458Z,3.64
2022-12-27T08:56:43.150Z,3.66
2022-12-27T08:59:09.838Z,3.68
2022-12-27T09:01:36.725Z,3.70
2022-12-27T09:04:03.632Z,3.74
2022-12-27T09:06:30.390Z,3.76
2022-12-27T09:08:57.381Z,3.76
2022-12-27T09:11:26.273Z,3.82
2022-12-27T09:13:53.895Z,3.83
2022-12-27T09:16:24.395Z,3.89
2022-12-27T09:18:52.483Z,3.93
2022-12-27T09:21:19.760Z,3.97
2022-12-27T09:23:46.655Z,3.99
2022-12-27T09:26:14.098Z,4.02
2022-12-27T09:28:41.224Z,4.05
2022-12-27T09:31:08.952Z,4.08
2022-12-27T09:33:35.708Z,4.12
2022-12-27T09:36:06.131Z,4.17
2022-12-27T09:38:32.823Z,4.21
2022-12-27T09:41:00.941Z,4.24
2022-12-27T09:44:06.151Z,4.27
2022-12-27T09:46:49.926Z,4.29
2022-12-27T09:52:00.608Z,4.36
2022-12-27T09:54:52.980Z,4.37
2022-12-27T09:57:24.553Z,4.41
2022-12-27T09:59:54.137Z,4.43
2022-12-27T10:02:25.617Z,4.46
2022-12-27T10:05:19.155Z,4.49
2022-12-27T10:07:46.814Z,4.51
2022-12-27T10:10:44.547Z,4.52
2022-12-27T10:13:20.499Z,4.55
2022-12-27T10:16:05.433Z,4.56
2022-12-27T10:19:06.924Z,4.58
2022-12-27T10:21:35.000Z,4.59
2022-12-27T10:24:10.390Z,4.61
2022-12-27T10:26:37.139Z,4.62
2022-12-27T10:29:25.176Z,4.62
2022-12-27T10:31:51.897Z,4.63
2022-12-27T10:34:24.233Z,4.66
2022-12-27T10:36:52.412Z,4.67
2022-12-27T10:39:24.160Z,4.68
2022-12-27T10:42:01.387Z,4.70
2022-12-27T10:44:28.809Z,4.71
2022-12-27T10:46:55.637Z,4.73
2022-12-27T10:49:23.747Z,4.74
2022-12-27T10:51:54.160Z,4.76
2022-12-27T10:54:28.392Z,4.77
2022-12-27T10:56:55.445Z,4.78
2022-12-27T10:59:28.478Z,4.82
2022-12-27T11:02:04.435Z,4.84
2022-12-27T11:04:31.391Z,4.86
2022-12-27T11:07:04.342Z,4.89
2022-12-27T11:09:31.043Z,4.89
2022-12-27T11:12:15.545Z,4.94
2022-12-27T11:14:58.658Z,4.95
2022-12-27T11:17:46.788Z,4.97
2022-12-27T11:20:43.769Z,5.00
2022-12-27T11:23:10.426Z,5.01
2022-12-27T11:25:55.938Z,5.02
2022-12-27T11:28:23.945Z,5.03
2022-12-27T11:31:01.566Z,5.05
2022-12-27T11:33:46.647Z,5.06
2022-12-27T11:36:13.639Z,5.06
2022-12-27T11:38:43.395Z,5.08
2022-12-27T11:41:15.247Z,5.10
2022-12-27T11:43:49.515Z,5.13
2022-12-27T11:46:24.126Z,5.15
2022-12-27T11:48:54.153Z,5.16
2022-12-27T11:51:42.553Z,5.16
2022-12-27T11:54:15.096Z,5.15
2022-12-27T11:56:45.167Z,5.15
2022-12-27T11:59:42.863Z,5.15
2022-12-27T12:02:24.687Z,5.14
2022-12-27T12:05:09.719Z,5.13
2022-12-27T12:08:04.438Z,5.13
2022-12-27T12:11:16.248Z,5.09
2022-12-27T12:13:49.074Z,5.11
2022-12-27T12:16:36.888Z,5.12
2022-12-27T12:19:08.776Z,5.13
2022-12-27T12:22:06.071Z,5.15
2022-12-27T12:24:35.813Z,5.15
2022-12-27T12:27:22.332Z,5.15
2022-12-27T12:30:11.778Z,5.14
2022-12-27T12:32:54.366Z,5.14
2022-12-27T12:35:27.881Z,5.13
2022-12-27T12:38:22.912Z,5.11
2022-12-27T12:40:52.307Z,5.10
2022-12-27T12:43:43.422Z,5.11
2022-12-27T12:46:47.678Z,5.12
2022-12-27T12:49:18.643Z,5.14
2022-12-27T12:52:03.924Z,5.15
2022-12-27T12:54:36.633Z,5.12
2022-12-27T12:57:12.349Z,5.15
2022-12-27T13:00:09.537Z,5.12
2022-12-27T13:03:04.305Z,5.15
2022-12-27T13:05:42.990Z,5.14
2022-12-27T13:08:27.885Z,5.14
2022-12-27T13:11:05.273Z,5.14
2022-12-27T13:14:02.888Z,5.13
2022-12-27T13:16:54.545Z,5.14
2022-12-27T13:19:46.293Z,5.14
2022-12-27T13:22:40.826Z,5.15
2022-12-27T13:25:37.727Z,5.15
2022-12-27T13:28:19.720Z,5.16
2022-12-27T13:30:56.497Z,5.15
2022-12-27T13:33:30.464Z,5.16
2022-12-27T13:36:06.919Z,5.17
2022-12-27T13:39:09.175Z,5.17
2022-12-27T13:41:54.405Z,5.18
2022-12-27T13:44:31.734Z,5.17
2022-12-27T13:47:04.466Z,5.17
2022-12-27T13:49:59.691Z,5.16
2022-12-27T13:52:47.229Z,5.16
2022-12-27T13:55:51.335Z,5.16
2022-12-27T13:58:27.427Z,5.16
2022-12-27T14:01:19.586Z,5.15
2022-12-27T14:04:05.491Z,5.13
2022-12-27T14:06:44.212Z,5.15
2022-12-27T14:09:34.068Z,5.15
2022-12-27T14:12:18.750Z,5.16
2022-12-27T14:14:45.418Z,5.17
2022-12-27T14:17:31.309Z,5.17
2022-12-27T14:19:57.939Z,5.16
2022-12-27T14:22:33.448Z,5.14
2022-12-27T14:25:30.903Z,5.14
2022-12-27T14:28:03.591Z,5.13
2022-12-27T14:30:54.332Z,5.12
2022-12-27T14:33:32.990Z,5.12
2022-12-27T14:36:16.445Z,5.14
2022-12-27T14:38:46.133Z,5.15
2022-12-27T14:41:49.344Z,5.15
2022-12-27T14:44:34.747Z,5.14
2022-12-27T14:47:44.895Z,5.13
2022-12-27T14:50:39.984Z,5.10
2022-12-27T14:53:10.905Z,5.12
2022-12-27T14:55:56.382Z,5.11
2022-12-27T14:58:47.234Z,5.09
2022-12-27T15:01:25.996Z,5.09
2022-12-27T15:04:13.584Z,5.09
2022-12-27T15:07:09.935Z,5.09
2022-12-27T15:09:52.607Z,5.08
2022-12-27T15:12:39.692Z,5.08
2022-12-27T15:15:27.557Z,5.07
2022-12-27T15:18:09.174Z,5.06
2022-12-27T15:20:38.807Z,5.01
2022-12-27T15:23:24.910Z,5.03
2022-12-27T15:25:54.910Z,5.01
2022-12-27T15:28:24.650Z,4.98
2022-12-27T15:31:06.840Z,4.95
2022-12-27T15:33:46.952Z,4.93
2022-12-27T15:36:17.788Z,4.92
2022-12-27T15:38:54.548Z,4.89
2022-12-27T15:41:30.761Z,4.87
2022-12-27T15:44:29.240Z,4.83
2022-12-27T15:46:59.033Z,4.79
2022-12-27T15:49:31.863Z,4.76
2022-12-27T15:52:03.821Z,4.69
2022-12-27T15:55:07.631Z,4.60
2022-12-27T15:57:53.010Z,4.47
2022-12-27T16:00:22.785Z,4.38
2022-12-27T16:02:51.093Z,4.31
2022-12-27T16:05:21.893Z,4.24
2022-12-27T16:08:18.836Z,4.17
2022-12-27T16:10:45.858Z,4.09
2022-12-27T16:13:21.968Z,4.03
2022-12-27T16:15:51.943Z,3.95
2022-12-27T16:18:21.778Z,3.89
2022-12-27T16:21:02.480Z,3.83
2022-12-27T16:23:33.179Z,3.76
2022-12-27T16:26:12.944Z,3.72
2022-12-27T16:28:39.646Z,3.67
2022-12-27T16:31:07.807Z,3.64
2022-12-27T16:33:43.560Z,3.60
2022-12-27T16:36:16.231Z,3.53
2022-12-27T16:38:46.408Z,3.47
2022-12-27T16:41:25.922Z,3.40
2022-12-27T16:44:01.753Z,3.33
2022-12-27T16:46:56.921Z,3.24
2022-12-27T16:49:29.743Z,3.21
2022-12-27T16:52:23.916Z,3.14
2022-12-27T16:55:25.962Z,3.05
2022-12-27T16:57:53.518Z,2.98
2022-12-27T17:00:37.361Z,2.93
2022-12-27T17:03:31.697Z,2.85
2022-12-27T17:06:30.538Z,2.84
2022-12-27T17:08:48.362Z,2.82
2022-12-27T17:11:15.045Z,2.76
2022-12-27T17:13:49.953Z,2.76
2022-12-27T17:16:23.293Z,2.69
2022-12-27T17:19:04.330Z,2.67
2022-12-27T17:21:38.065Z,2.64
2022-12-27T17:24:23.019Z,2.61
2022-12-27T17:27:31.480Z,2.58
2022-12-27T17:30:05.371Z,2.54
2022-12-27T17:32:42.027Z,2.50
2022-12-27T17:35:14.975Z,2.46
2022-12-27T17:38:14.283Z,2.44
2022-12-27T17:41:16.314Z,2.43
2022-12-27T17:44:24.174Z,2.39
2022-12-27T17:47:28.825Z,2.36
2022-12-27T17:49:59.383Z,2.32
2022-12-27T17:52:44.747Z,2.29
2022-12-27T17:55:38.797Z,2.30
2022-12-27T17:58:08.016Z,2.30
2022-12-27T18:00:36.915Z,2.29
2022-12-27T18:03:07.599Z,2.27
2022-12-27T18:05:36.884Z,2.27
2022-12-27T18:08:05.754Z,2.28
2022-12-27T18:10:34.333Z,2.24
2022-12-27T18:13:03.052Z,2.27
2022-12-27T18:15:32.274Z,2.27
2022-12-27T18:18:00.332Z,2.25
2022-12-27T18:20:31.119Z,2.25
2022-12-27T18:23:00.944Z,2.24
2022-12-27T18:25:28.884Z,2.24
2022-12-27T18:28:33.884Z,2.23
2022-12-27T18:31:09.229Z,2.23
2022-12-27T18:34:00.768Z,2.22
2022-12-27T18:36:34.459Z,2.21
2022-12-27T18:39:05.516Z,2.19
2022-12-27T18:41:50.635Z,2.16
2022-12-27T18:44:27.049Z,2.14
2022-12-27T18:46:55.928Z,2.13
2022-12-27T18:49:26.584Z,2.11
2022-12-27T18:51:55.036Z,2.12
2022-12-27T18:54:31.050Z,2.13
2022-12-27T18:56:59.099Z,2.12
2022-12-27T18:59:28.807Z,2.11
2022-12-27T19:02:01.433Z,2.08
2022-12-27T19:04:32.119Z,2.05
2022-12-27T19:07:12.623Z,2.04
2022-12-27T19:09:48.406Z,2.04
2022-12-27T19:12:35.212Z,2.04
2022-12-27T19:15:01.939Z,2.05
2022-12-27T19:17:30.561Z,2.07
2022-12-27T19:20:07.011Z,2.09
2022-12-27T19:22:45.854Z,2.10
2022-12-27T19:25:25.726Z,2.11
2022-12-27T19:28:04.241Z,2.11
2022-12-27T19:30:38.674Z,2.11
2022-12-27T19:33:08.339Z,2.12
2022-12-27T19:35:35.363Z,2.10
2022-12-27T19:38:02.252Z,2.10
2022-12-27T19:40:28.904Z,2.12
2022-12-27T19:42:55.621Z,2.12
2022-12-27T19:45:22.380Z,2.13
2022-12-27T19:47:49.304Z,2.13
2022-12-27T19:50:16.703Z,2.13
2022-12-27T19:52:43.445Z,2.13
2022-12-27T19:55:12.987Z,2.11
2022-12-27T19:57:40.598Z,2.11
2022-12-27T20:00:16.683Z,2.11
2022-12-27T20:02:43.477Z,2.12
2022-12-27T20:05:10.262Z,2.13
2022-12-27T20:07:37.190Z,2.12
2022-12-27T20:10:04.297Z,2.13
2022-12-27T20:12:31.210Z,2.10
2022-12-27T20:14:58.053Z,2.12
2022-12-27T20:17:24.658Z,2.13
2022-12-27T20:19:51.702Z,2.13
2022-12-27T20:22:18.493Z,2.15
2022-12-27T20:24:47.173Z,2.15
2022-12-27T20:27:13.929Z,2.15
2022-12-27T20:29:40.636Z,2.15
2022-12-27T20:32:07.476Z,2.16
2022-12-27T20:34:34.099Z,2.15
2022-12-27T20:37:00.828Z,2.15
2022-12-27T20:39:27.551Z,2.15
2022-12-27T20:41:55.927Z,2.16
2022-12-27T20:44:22.733Z,2.17
2022-12-27T20:46:50.665Z,2.16
2022-12-27T20:49:17.447Z,2.16
2022-12-27T20:51:44.094Z,2.15
2022-12-27T20:54:12.812Z,2.16
2022-12-27T20:56:39.539Z,2.16
2022-12-27T20:59:06.423Z,2.16
2022-12-27T21:01:33.156Z,2.15
2022-12-27T21:03:59.856Z,2.16
2022-12-27T21:06:27.686Z,2.17
2022-12-27T21:08:57.647Z,2.18
2022-12-27T21:11:27.075Z,2.19
2022-12-27T21:13:54.066Z,2.20
2022-12-27T21:16:24.598Z,2.19
2022-12-27T21:18:51.414Z,2.19
2022-12-27T21:21:20.517Z,2.17
2022-12-27T21:23:47.557Z,2.15
2022-12-27T21:26:16.818Z,2.14
2022-12-27T21:28:44.248Z,2.13
2022-12-27T21:31:11.480Z,2.13
2022-12-27T21:33:38.613Z,2.12
2022-12-27T21:36:06.821Z,2.11
2022-12-27T21:38:33.764Z,2.10
2022-12-27T21:41:20.261Z,2.11
2022-12-27T21:43:47.462Z,2.10
2022-12-27T21:46:20.145Z,2.10
2022-12-27T21:48:47.503Z,2.09
2022-12-27T21:51:17.038Z,2.09
2022-12-27T21:53:43.849Z,2.10
2022-12-27T21:56:11.179Z,2.12
2022-12-27T21:58:38.788Z,2.11
2022-12-27T22:01:08.849Z,1.99
2022-12-27T22:03:37.946Z,2.09
2022-12-27T22:08:43.996Z,2.11
2022-12-27T22:11:10.895Z,2.08
2022-12-27T22:13:37.636Z,2.09
2022-12-27T22:16:06.118Z,2.09
2022-12-27T22:18:36.354Z,2.08
2022-12-27T22:21:06.420Z,2.08
2022-12-27T22:23:33.824Z,2.06
2022-12-27T22:26:00.585Z,2.05
2022-12-27T22:28:27.498Z,2.04
2022-12-27T22:30:54.482Z,2.05
2022-12-27T22:33:21.291Z,2.06
2022-12-27T22:35:47.964Z,2.06
2022-12-27T22:38:14.750Z,2.04
2022-12-27T22:40:46.289Z,2.02
2022-12-27T22:43:14.005Z,2.00
2022-12-27T22:45:41.373Z,1.98
2022-12-27T22:48:08.104Z,1.98
2022-12-27T22:50:34.775Z,1.97
2022-12-27T22:53:01.497Z,1.97
2022-12-27T22:55:28.207Z,1.98
2022-12-27T22:57:54.956Z,1.97
2022-12-27T23:00:21.599Z,1.95
2022-12-27T23:02:48.388Z,1.93
2022-12-27T23:05:15.128Z,1.92
2022-12-27T23:08:05.184Z,1.92
2022-12-27T23:10:28.575Z,1.92
2022-12-27T23:12:56.553Z,1.92
2022-12-27T23:15:23.224Z,1.91
2022-12-27T23:17:49.971Z,1.87
2022-12-27T23:20:16.799Z,1.89
2022-12-27T23:22:43.519Z,1.88
2022-12-27T23:25:10.153Z,1.88
2022-12-27T23:27:36.877Z,1.88
2022-12-27T23:30:04.055Z,1.87
2022-12-27T23:32:30.787Z,1.86
2022-12-27T23:34:57.537Z,1.85
2022-12-27T23:37:24.230Z,1.85
2022-12-27T23:39:51.232Z,1.86
2022-12-27T23:42:17.961Z,1.87
2022-12-27T23:44:44.652Z,1.87
2022-12-27T23:47:11.428Z,1.86
2022-12-27T23:49:38.111Z,1.84
2022-12-27T23:52:05.116Z,1.81
2022-12-27T23:54:31.893Z,1.79
2022-12-27T23:56:58.586Z,1.78
2022-12-27T23:59:45.541Z,1.75
